Latest Weather Observations for Maria Island

IDT60801

Issued at 8:01 pm EST Tuesday 31 May 2016 (issued every 30 minutes, with the page automatically refreshed every 10 minutes)

About weather observations | Map of weather stations | Latest weather observations for TAS | Other Formats
Station Details ID: 092124 Name: MARIA ISLAND (POINT LESUEUR) Lat: -42.66 Lon: 148.02 Height: 28.0 m
Data from the previous 72 hours. | See also: Recent months at Maria Island
Date/Time
EST
Temp
°C
App
Temp
°C
Dew
Point
Rel
Hum
%
Delta-T
°C
Wind Press
QNH
hPa
Press
MSL
hPa
Rain
since 9 am
mm
Dir
 
Spd
km/h
Gust
km/h
Spd
kts
Gust
kts
31/08:00pm 8.0 - - - - W 6 9 3 5 1032.7 1032.8 0.0
31/07:30pm 8.1 - - - - WNW 7 7 4 4 1032.7 1032.8 0.0
31/07:00pm 8.2 - - - - WNW 4 6 2 3 1032.5 1032.6 0.0
31/06:30pm 7.9 - - - - NE 6 6 3 3 1032.3 1032.4 0.0
31/06:00pm 8.1 - - - - ENE 7 9 4 5 1032.1 1032.2 0.0
31/05:30pm 8.7 - - - - ENE 7 7 4 4 1031.9 1032.0 0.0
31/05:00pm 9.3 - - - - ENE 6 6 3 3 1031.7 1031.8 0.0
31/04:30pm 9.9 - - - - E 6 6 3 3 1031.5 1031.6 0.0
31/04:00pm 10.5 - - - - E 4 6 2 3 1031.5 1031.6 0.0
31/03:30pm 10.8 - - - - E 4 6 2 3 1031.6 1031.7 0.0
31/03:00pm 10.9 - - - - SE 4 6 2 3 1031.5 1031.6 0.0
31/02:30pm 10.9 - - - - SSE 2 4 1 2 1031.5 1031.6 0.0
31/02:00pm 11.0 - - - - S 6 9 3 5 1031.7 1031.8 0.0
31/01:30pm 10.8 - - - - S 9 11 5 6 1032.1 1032.2 0.0
31/01:00pm 10.5 - - - - SSW 11 13 6 7 1032.3 1032.4 0.0
31/12:30pm 10.5 - - - - SSW 11 15 6 8 1032.4 1032.5 0.0
31/12:00pm 9.9 - - - - S 11 13 6 7 1032.8 1032.9 0.0
31/11:30am 9.8 - - - - SSW 11 13 6 7 1033.1 1033.2 0.0
31/11:00am 9.1 - - - - SW 4 6 2 3 1033.5 1033.6 0.0
31/10:30am 9.2 - - - - CALM 0 0 0 0 1033.8 1033.9 0.0
31/10:00am 8.6 - - - - WNW 2 4 1 2 1033.8 1033.9 0.0
31/09:30am 7.7 - - - - WNW 7 11 4 6 1033.8 1033.9 0.0
31/09:00am 6.9 - - - - WNW 11 13 6 7 1033.7 1033.8 0.0
31/08:30am 6.6 - - - - WNW 7 11 4 6 1033.5 1033.6 0.0
31/08:00am 5.9 - - - - N 4 6 2 3 1033.3 1033.4 0.0
31/07:30am 5.4 - - - - NNE 6 6 3 3 1033.0 1033.1 0.0
31/07:00am 6.1 - - - - NNW 2 4 1 2 1032.7 1032.8 0.0
31/06:30am 6.3 - - - - NW 4 6 2 3 1032.4 1032.5 0.0
31/06:00am 6.3 - - - - CALM 0 0 0 0 1032.0 1032.1 0.0
31/05:30am 6.5 - - - - CALM 0 0 0 0 1031.9 1032.0 0.0
31/05:00am 6.6 - - - - NNE 2 6 1 3 1031.8 1031.9 0.0
31/04:30am 6.2 - - - - NE 4 4 2 2 1031.6 1031.7 0.0
31/04:00am 6.5 - - - - SE 4 6 2 3 1031.5 1031.6 0.0
31/03:30am 7.2 - - - - SSE 6 7 3 4 1031.4 1031.5 0.0
31/03:00am 6.6 - - - - W 13 17 7 9 1031.4 1031.5 0.0
31/02:30am 6.5 - - - - WNW 13 17 7 9 1031.4 1031.5 0.0
31/02:00am 6.6 - - - - WNW 11 13 6 7 1031.4 1031.5 0.0
31/01:30am 6.8 - - - - W 7 11 4 6 1031.3 1031.4 0.0
31/01:00am 7.2 - - - - W 13 15 7 8 1031.5 1031.6 0.0
31/12:30am 7.2 - - - - WNW 13 15 7 8 1031.5 1031.6 0.0
31/12:00am 7.3 - - - - W 11 13 6 7 1031.6 1031.7 0.0
 
Date/Time
EST
Temp
°C
App
Temp
°C
Dew
Point
Rel
Hum
%
Delta-T
°C
Wind Press
QNH
hPa
Press
MSL
hPa
Rain
since 9 am
mm
Dir
 
Spd
km/h
Gust
km/h
Spd
kts
Gust
kts
30/11:30pm 7.5 - - - - W 17 20 9 11 1031.6 1031.7 0.0
30/11:00pm 7.5 - - - - W 17 20 9 11 1031.6 1031.7 0.0
30/10:30pm 7.2 - - - - W 15 20 8 11 1031.5 1031.6 0.0
30/10:00pm 7.3 - - - - W 13 13 7 7 1031.3 1031.4 0.0
30/09:30pm 7.2 - - - - W 11 13 6 7 1031.2 1031.3 0.0
30/09:00pm 7.4 - - - - W 9 11 5 6 1031.0 1031.1 0.0
30/08:30pm 7.7 - - - - W 7 9 4 5 1030.8 1030.9 0.0
30/08:00pm 7.8 - - - - W 7 9 4 5 1030.5 1030.6 0.0
30/07:30pm 8.7 - - - - WSW 11 13 6 7 1030.5 1030.6 0.0
30/07:00pm 8.7 - - - - SW 11 15 6 8 1030.4 1030.5 0.0
30/06:30pm 9.0 - - - - SW 13 15 7 8 1030.0 1030.1 0.0
30/06:00pm 9.2 - - - - SSW 11 15 6 8 1029.6 1029.7 0.0
30/05:30pm 8.9 - - - - SW 13 15 7 8 1029.2 1029.2 0.0
30/05:00pm 8.6 - - - - SW 13 15 7 8 1028.8 1028.8 0.0
30/04:30pm 9.0 - - - - SW 19 20 10 11 1028.5 1028.5 0.0
30/04:00pm 9.6 - - - - SW 17 19 9 10 1028.3 1028.3 0.0
30/03:30pm 10.1 - - - - SW 17 20 9 11 1028.0 1028.0 0.0
30/03:00pm 10.7 - - - - SW 13 17 7 9 1027.8 1027.8 0.0
30/02:30pm 10.7 - - - - SSW 7 13 4 7 1027.7 1027.7 0.0
30/02:00pm 10.4 - - - - SSW 13 17 7 9 1027.5 1027.5 0.0
30/01:30pm 10.3 - - - - SSW 17 20 9 11 1027.6 1027.6 0.0
30/01:00pm 10.4 - - - - SSW 19 22 10 12 1027.6 1027.6 0.0
30/12:30pm 10.5 - - - - SW 15 20 8 11 1027.7 1027.7 0.0
30/12:00pm 10.2 - - - - SSW 17 20 9 11 1027.6 1027.6 0.0
30/11:30am 10.5 - - - - SSW 19 22 10 12 1027.8 1027.8 0.0
30/11:00am 10.2 - - - - SSW 22 26 12 14 1027.8 1027.8 0.0
30/10:30am 10.0 - - - - SSW 24 28 13 15 1027.7 1027.7 0.0
30/10:00am 9.7 - - - - SSW 26 30 14 16 1027.4 1027.4 0.0
30/09:30am 9.5 - - - - SSW 26 30 14 16 1027.1 1027.1 0.0
30/09:00am 9.4 - - - - SSW 26 32 14 17 1026.9 1026.9 0.2
30/08:30am 9.6 - - - - SSW 28 32 15 17 1026.6 1026.6 0.2
30/08:00am 9.6 - - - - SSW 28 32 15 17 1026.3 1026.3 0.2
30/07:30am 9.5 - - - - SSW 30 37 16 20 1025.9 1025.9 0.2
30/07:00am 9.4 - - - - SSW 30 37 16 20 1025.5 1025.5 0.2
30/06:30am 9.4 - - - - SSW 32 37 17 20 1025.2 1025.2 0.2
30/06:00am 9.3 - - - - SSW 28 33 15 18 1024.8 1024.8 0.2
30/05:30am 9.4 - - - - SSW 30 35 16 19 1024.5 1024.5 0.2
30/05:00am 9.6 - - - - SSW 32 35 17 19 1024.2 1024.2 0.2
30/04:30am 9.6 - - - - SSW 32 37 17 20 1023.8 1023.8 0.2
30/04:00am 9.6 - - - - SSW 33 37 18 20 1023.4 1023.4 0.2
30/03:30am 9.6 - - - - SSW 33 39 18 21 1023.1 1023.1 0.2
30/03:00am 10.0 - - - - SSW 35 41 19 22 1022.9 1022.9 0.2
30/02:30am 9.9 - - - - SSW 35 41 19 22 1022.8 1022.8 0.2
30/02:00am 9.9 - - - - SSW 33 39 18 21 1022.6 1022.6 0.2
30/01:30am 9.7 - - - - SSW 32 37 17 20 1022.2 1022.2 0.2
30/01:00am 10.1 - - - - SSW 33 41 18 22 1022.0 1022.0 0.2
30/12:30am 10.2 - - - - SSW 30 35 16 19 1021.9 1021.9 0.2
30/12:00am 10.3 - - - - SSW 26 30 14 16 1021.8 1021.8 0.2
 
Date/Time
EST
Temp
°C
App
Temp
°C
Dew
Point
Rel
Hum
%
Delta-T
°C
Wind Press
QNH
hPa
Press
MSL
hPa
Rain
since 9 am
mm
Dir
 
Spd
km/h
Gust
km/h
Spd
kts
Gust
kts
29/11:30pm 9.9 - - - - SW 24 28 13 15 1021.7 1021.7 0.2
29/11:00pm 10.4 - - - - SW 22 28 12 15 1021.4 1021.4 0.2
29/10:30pm 10.4 - - - - SSW 24 30 13 16 1021.3 1021.3 0.2
29/10:00pm 10.3 - - - - SSW 24 30 13 16 1021.0 1021.0 0.2
29/09:30pm 10.3 - - - - SSW 22 26 12 14 1020.9 1020.9 0.2
29/09:00pm 10.2 - - - - SSW 20 24 11 13 1020.5 1020.5 0.2
29/08:30pm 10.2 - - - - SSW 32 37 17 20 1020.3 1020.3 0.2
29/08:00pm 10.6 - - - - SSW 30 35 16 19 1019.9 1019.9 0.2
29/07:30pm 10.7 - - - - SSW 28 32 15 17 1019.5 1019.5 0.2
29/07:00pm 10.6 - - - - SW 28 33 15 18 1019.0 1019.0 0.2
29/06:30pm 10.5 - - - - SW 26 32 14 17 1018.5 1018.5 0.2
29/06:00pm 10.4 - - - - SW 28 32 15 17 1018.2 1018.2 0.2
29/05:30pm 10.7 - - - - SW 28 33 15 18 1017.8 1017.8 0.2
29/05:00pm 10.9 - - - - SW 28 32 15 17 1017.5 1017.5 0.2
29/04:30pm 10.9 - - - - SW 28 35 15 19 1017.0 1017.0 0.2
29/04:00pm 11.3 - - - - SSW 32 35 17 19 1016.6 1016.6 0.2
29/03:30pm 11.1 - - - - SSW 37 43 20 23 1016.3 1016.3 0.2
29/03:00pm 11.5 - - - - SSW 39 44 21 24 1015.7 1015.7 0.2
29/02:30pm 11.6 - - - - SSW 37 44 20 24 1015.4 1015.4 0.2
29/02:00pm 11.6 - - - - SW 32 39 17 21 1015.2 1015.2 0.2
29/01:30pm 11.6 - - - - SW 28 32 15 17 1014.9 1014.9 0.2
29/01:00pm 10.9 - - - - SSW 32 37 17 20 1014.7 1014.7 0.2
29/12:30pm 11.4 - - - - SSW 35 41 19 22 1014.5 1014.5 0.0
29/12:00pm 11.1 - - - - SSW 33 39 18 21 1014.5 1014.5 0.0
29/11:30am 11.5 - - - - SW 33 37 18 20 1014.4 1014.4 0.0
29/11:00am 11.7 - - - - SSW 37 43 20 23 1014.3 1014.3 0.0
29/10:30am 10.9 - - - - SW 33 39 18 21 1014.3 1014.3 0.0
29/10:00am 10.8 - - - - SSW 26 32 14 17 1014.1 1014.1 0.0
29/09:30am 10.9 - - - - SSW 33 39 18 21 1013.7 1013.7 0.0
29/09:00am 10.7 - - - - SSW 35 43 19 23 1013.3 1013.3 1.2
29/08:30am 10.2 - - - - SSW 35 43 19 23 1012.8 1012.8 1.0
29/08:00am 9.8 - - - - SW 43 48 23 26 1012.2 1012.2 0.6
29/07:30am 9.9 - - - - SW 41 48 22 26 1012.0 1012.0 0.0
29/07:00am 10.5 - - - - SW 37 44 20 24 1011.7 1011.7 0.0
29/06:30am 10.4 - - - - SW 43 50 23 27 1011.1 1011.1 0.0
29/06:00am 10.6 - - - - SW 39 46 21 25 1010.8 1010.8 0.0
29/05:30am 10.4 - - - - SW 32 41 17 22 1010.6 1010.6 0.0
29/05:00am 10.4 - - - - SW 30 35 16 19 1010.3 1010.3 0.0
29/04:30am 10.1 - - - - SW 33 43 18 23 1010.1 1010.1 0.0
29/04:00am 10.2 - - - - SW 35 43 19 23 1010.1 1010.1 0.0
29/03:30am 10.2 - - - - SW 26 37 14 20 1010.0 1010.0 0.0
29/03:00am 10.2 - - - - SW 22 30 12 16 1009.9 1009.9 0.0
29/02:30am 10.3 - - - - WSW 28 35 15 19 1009.7 1009.7 0.0
29/02:00am 10.2 - - - - SW 30 39 16 21 1009.7 1009.7 0.0
29/01:30am 10.1 - - - - WSW 19 22 10 12 1009.7 1009.7 0.0
29/01:00am 10.3 - - - - WSW 20 24 11 13 1009.5 1009.5 0.0
29/12:30am 10.2 - - - - WSW 15 20 8 11 1009.5 1009.5 0.0
29/12:00am 9.8 - - - - WSW 13 20 7 11 1009.5 1009.5 0.0
 
Date/Time
EST
Temp
°C
App
Temp
°C
Dew
Point
Rel
Hum
%
Delta-T
°C
Wind Press
QNH
hPa
Press
MSL
hPa
Rain
since 9 am
mm
Dir
 
Spd
km/h
Gust
km/h
Spd
kts
Gust
kts
28/11:30pm 9.5 - - - - W 11 17 6 9 1009.6 1009.6 0.0
28/11:00pm 9.4 - - - - WNW 13 15 7 8 1009.5 1009.5 0.0
28/10:30pm 9.3 - - - - W 13 15 7 8 1009.4 1009.4 0.0
28/10:00pm 9.4 - - - - W 13 15 7 8 1009.4 1009.4 0.0
28/09:30pm 9.3 - - - - NW 6 7 3 4 1009.4 1009.4 0.0
28/09:00pm 9.1 - - - - WNW 6 9 3 5 1009.3 1009.3 0.0
28/08:30pm 8.8 - - - - W 9 13 5 7 1009.2 1009.2 0.0

Other Formats:

Comma delimited format used in spreadsheet applications
http://www.bom.gov.au/fwo/IDT60801/IDT60801.95988.axf

JavaScript Object Notation format (JSON) in row-major order
http://www.bom.gov.au/fwo/IDT60801/IDT60801.95988.json